Nearby METAR Reports

 

KFRG - , , USA
Distance from station: SSW 12mi, 20km
Updated: 10/18/2021 10:53pm
Clear
Clear
 Wind from WNW
Wind: WNW 9 mph , 15 km/h
Temperature: 50°F , 10°C
Wind Chill: 46°F , 8°C
Dew Point: 36°F , 2°C
Humidity: 58%
Barometer: 29.97 inHg , 1014.9 hPa
Clouds: Clear
Visibility: 10 miles , 16 km
2021/10/19 02:53 KFRG 190253Z AUTO 30008KT 10SM CLR 10/02 A2997 RMK AO2 SLP148 T01000022 51016
KISP - , , USA
Distance from station: ESE 14mi, 23km
Updated: 10/18/2021 10:56pm
Mostly cloudy
Mostly cloudy
 Wind from WNW
Wind: WNW 8 mph , 13 km/h
Temperature: 48°F , 9°C
Wind Chill: 44°F , 7°C
Dew Point: 37°F , 3°C
Humidity: 66%
Barometer: 29.95 inHg , 1014.2 hPa
Clouds: Mostly cloudy
Visibility: 10 miles , 16 km
Cloud details: Partly cloudy 7500 ft
Mostly cloudy 25000 ft
2021/10/19 02:56 KISP 190256Z 29007KT 10SM SCT075 BKN250 09/03 A2995 RMK AO2 SLP140 T00940028 51017
 
KBDR - , , USA
Distance from station: NNE 21mi, 34km
Updated: 10/18/2021 10:52pm
Clear
Clear
 Wind from W
Wind: W 5 mph , 7 km/h
Temperature: 45°F , 7°C
Wind Chill: 42°F , 6°C
Dew Point: 39°F , 4°C
Humidity: 81%
Barometer: 29.95 inHg , 1014.2 hPa
Clouds: Clear
Visibility: 10 miles , 16 km
2021/10/19 02:52 KBDR 190252Z AUTO 28004KT 10SM CLR 07/04 A2995 RMK AO2 SLP140 T00720039 51019
KHPN - , , USA
Distance from station: WNW 22mi, 35km
Updated: 10/18/2021 10:56pm
Few Clouds
Few Clouds
 Wind from W
Wind: W 10 mph , 17 km/h
Temperature: 46°F , 8°C
Wind Chill: 41°F , 5°C
Dew Point: 36°F , 2°C
Humidity: 66%
Barometer: 29.94 inHg , 1013.9 hPa
Clouds: Few Clouds
Visibility: 10 miles , 16 km
Cloud details: Few Clouds 6500 ft
2021/10/19 02:56 KHPN 190256Z 28009KT 10SM FEW065 08/02 A2994 RMK AO2 SLP142 T00830022 52010
 
KHWV - , , USA
Distance from station: ESE 26mi, 41km
Updated: 10/18/2021 10:56pm
Clear
Clear
 Wind from WNW
Wind: WNW 8 mph , 13 km/h
Temperature: 48°F , 9°C
Wind Chill: 44°F , 7°C
Dew Point: 36°F , 2°C
Humidity: 62%
Barometer: 29.94 inHg , 1013.9 hPa
Clouds: Clear
Visibility: 10 miles , 16 km
2021/10/19 02:56 KHWV 190256Z AUTO 30007KT 10SM CLR 09/02 A2994 RMK AO2 SLP138 T00940022 51015
KJFK - , , USA
Distance from station: SW 29mi, 46km
Updated: 10/18/2021 10:51pm
Few Clouds
Few Clouds
 Wind from WNW
Wind: WNW 12 mph , 19 km/h
Temperature: 50°F , 10°C
Wind Chill: 45°F , 7°C
Dew Point: 36°F , 2°C
Humidity: 58%
Barometer: 29.98 inHg , 1015.2 hPa
Clouds: Few Clouds
Visibility: 10 miles , 16 km
Cloud details: Few Clouds 8500 ft
2021/10/19 02:51 KJFK 190251Z 30010KT 10SM FEW085 10/02 A2998 RMK AO2 SLP153 T01000017 51014
 
KLGA - , , USA
Distance from station: WSW 29mi, 47km
Updated: 10/18/2021 10:51pm
Few Clouds
Few Clouds
 Wind from WNW
Wind: WNW 10 mph , 17 km/h
Temperature: 54°F , 12°C
Dew Point: 36°F , 2°C
Humidity: 51%
Barometer: 29.97 inHg , 1014.9 hPa
Clouds: Few Clouds
Visibility: 10 miles , 16 km
Cloud details: Few Clouds 7000 ft
2021/10/19 02:51 KLGA 190251Z 30009KT 10SM FEW070 12/02 A2997 RMK AO2 SLP149 T01170022 51013